createdAt,value
2018-07-04T00:02:30.198Z,4.17
2018-07-04T00:05:16.457Z,2.80
2018-07-04T00:08:02.823Z,3.37
2018-07-04T00:10:49.163Z,3.30
2018-07-04T00:13:35.541Z,2.90
2018-07-04T00:16:22.179Z,3.37
2018-07-04T00:19:08.808Z,3.53
2018-07-04T00:21:55.249Z,2.80
2018-07-04T00:24:41.385Z,3.40
2018-07-04T00:27:27.775Z,2.80
2018-07-04T00:30:14.083Z,2.83
2018-07-04T00:33:00.942Z,3.03
2018-07-04T00:35:47.680Z,2.90
2018-07-04T00:38:38.506Z,3.10
2018-07-04T00:41:25.213Z,3.07
2018-07-04T00:44:12.914Z,5.43
2018-07-04T00:46:59.450Z,3.50
2018-07-04T00:49:46.057Z,3.70
2018-07-04T00:52:34.260Z,3.10
2018-07-04T00:55:14.894Z,2.87
2018-07-04T00:58:07.649Z,3.40
2018-07-04T01:00:54.161Z,3.30
2018-07-04T01:03:40.723Z,3.17
2018-07-04T01:06:28.144Z,3.30
2018-07-04T01:09:14.651Z,3.40
2018-07-04T01:12:01.152Z,3.33
2018-07-04T01:14:47.656Z,3.30
2018-07-04T01:17:34.162Z,3.30
2018-07-04T01:20:20.519Z,3.27
2018-07-04T01:23:06.904Z,3.17
2018-07-04T01:25:58.341Z,4.47
2018-07-04T01:28:49.288Z,3.00
2018-07-04T01:31:37.784Z,3.50
2018-07-04T01:34:24.336Z,3.37
2018-07-04T01:37:11.050Z,3.27
2018-07-04T01:39:57.929Z,3.90
2018-07-04T01:42:44.306Z,3.27
2018-07-04T01:45:30.794Z,3.37
2018-07-04T01:48:17.310Z,3.60
2018-07-04T01:51:03.784Z,3.70
2018-07-04T01:53:50.290Z,3.20
2018-07-04T01:56:36.910Z,3.87
2018-07-04T01:59:23.432Z,3.73
2018-07-04T02:02:09.946Z,3.80
2018-07-04T02:05:07.144Z,4.00
2018-07-04T02:07:53.825Z,3.90
2018-07-04T02:10:40.192Z,3.50
2018-07-04T02:13:26.824Z,3.40
2018-07-04T02:16:13.585Z,3.90
2018-07-04T02:19:00.146Z,3.60
2018-07-04T02:21:47.834Z,4.10
2018-07-04T02:24:34.333Z,4.30
2018-07-04T02:27:23.184Z,3.73
2018-07-04T02:30:09.795Z,4.87
2018-07-04T02:32:56.305Z,4.47
2018-07-04T02:41:44.404Z,3.73
2018-07-04T02:50:30.407Z,3.90
2018-07-04T02:53:16.612Z,3.67
2018-07-04T02:56:02.956Z,5.10
2018-07-04T02:58:54.542Z,3.80
2018-07-04T03:01:42.600Z,4.30
2018-07-04T03:04:29.212Z,3.63
2018-07-04T03:07:15.714Z,3.53
2018-07-04T03:10:02.211Z,3.53
2018-07-04T03:12:48.679Z,4.03
2018-07-04T03:15:35.139Z,3.90
2018-07-04T03:18:21.733Z,4.40
2018-07-04T03:21:08.231Z,4.10
2018-07-04T03:23:58.070Z,4.00
2018-07-04T03:26:44.741Z,3.83
2018-07-04T03:29:31.308Z,3.70
2018-07-04T03:32:17.764Z,4.23
2018-07-04T03:35:04.098Z,3.87
2018-07-04T03:37:50.376Z,5.70
2018-07-04T03:40:36.943Z,4.30
2018-07-04T03:43:23.551Z,4.17
2018-07-04T03:46:09.908Z,3.70
2018-07-04T03:48:56.415Z,4.80
2018-07-04T03:51:43.020Z,4.33
2018-07-04T03:54:31.120Z,4.30
2018-07-04T03:57:17.737Z,4.17
2018-07-04T04:00:04.032Z,4.20
2018-07-04T04:02:50.627Z,4.80
2018-07-04T04:05:37.213Z,4.50
2018-07-04T04:08:26.009Z,5.00
2018-07-04T04:11:12.592Z,4.80
2018-07-04T04:13:59.031Z,4.80
2018-07-04T04:16:46.272Z,4.27
2018-07-04T04:19:33.748Z,5.63
2018-07-04T04:22:20.397Z,4.40
2018-07-04T04:25:11.497Z,4.10
2018-07-04T04:27:57.987Z,16.80
2018-07-04T04:30:49.432Z,4.77
2018-07-04T04:33:36.251Z,4.40
2018-07-04T04:36:30.088Z,4.73
2018-07-04T04:39:16.740Z,4.90
2018-07-04T04:42:07.112Z,5.90
2018-07-04T04:44:56.959Z,5.00
2018-07-04T04:47:43.421Z,5.10
2018-07-04T04:50:29.945Z,4.60
2018-07-04T04:53:16.514Z,4.20
2018-07-04T04:56:03.243Z,4.77
2018-07-04T04:58:49.818Z,4.73
2018-07-04T05:01:36.536Z,4.30
2018-07-04T05:04:22.831Z,4.40
2018-07-04T05:07:09.680Z,4.13
2018-07-04T05:09:55.951Z,5.07
2018-07-04T05:12:42.465Z,4.93
2018-07-04T05:15:29.009Z,4.40
2018-07-04T05:18:15.595Z,4.77
2018-07-04T05:21:02.593Z,5.33
2018-07-04T05:23:49.305Z,4.40
2018-07-04T05:26:36.054Z,4.40
2018-07-04T05:29:22.698Z,4.60
2018-07-04T05:32:09.404Z,4.10
2018-07-04T05:34:56.014Z,3.90
2018-07-04T05:37:42.657Z,4.30
2018-07-04T05:40:30.780Z,3.80
2018-07-04T05:43:17.266Z,5.10
2018-07-04T05:46:04.064Z,3.87
2018-07-04T05:48:50.699Z,4.53
2018-07-04T05:51:43.739Z,4.73
2018-07-04T05:54:31.250Z,4.10
2018-07-04T05:57:17.777Z,3.97
2018-07-04T06:00:08.489Z,4.00
2018-07-04T06:02:56.349Z,4.20
2018-07-04T06:05:43.658Z,3.97
2018-07-04T06:08:36.603Z,3.30
2018-07-04T06:23:23.338Z,4.43
2018-07-04T06:26:09.521Z,4.27
2018-07-04T06:28:49.643Z,5.20
2018-07-04T06:31:35.976Z,3.87
2018-07-04T06:34:23.331Z,3.43
2018-07-04T06:37:10.615Z,3.10
2018-07-04T06:39:44.809Z,3.63
2018-07-04T06:42:12.671Z,2.90
2018-07-04T06:44:40.555Z,3.13
2018-07-04T06:47:08.467Z,3.50
2018-07-04T06:49:36.519Z,3.20
2018-07-04T06:52:04.450Z,2.70
2018-07-04T06:54:32.465Z,2.80
2018-07-04T06:57:00.499Z,3.63
2018-07-04T06:59:28.401Z,3.67
2018-07-04T07:02:21.893Z,3.00
2018-07-04T07:05:03.100Z,3.30
2018-07-04T07:07:49.632Z,2.73
2018-07-04T07:10:36.106Z,2.50
2018-07-04T07:13:22.565Z,3.60
2018-07-04T07:16:09.051Z,2.73
2018-07-04T07:18:55.333Z,3.00
2018-07-04T07:21:41.756Z,3.27
2018-07-04T07:24:28.454Z,3.00
2018-07-04T07:27:15.146Z,2.37
2018-07-04T07:30:01.709Z,2.57
2018-07-04T07:32:48.390Z,2.40
2018-07-04T07:35:35.194Z,2.30
2018-07-04T07:38:22.724Z,2.93
2018-07-04T07:41:09.661Z,3.40
2018-07-04T07:43:50.324Z,2.10
2018-07-04T07:46:36.867Z,2.57
2018-07-04T07:49:23.186Z,2.50
2018-07-04T07:52:09.712Z,2.40
2018-07-04T07:54:56.072Z,2.57
2018-07-04T07:57:42.473Z,2.50
2018-07-04T08:00:22.631Z,2.37
2018-07-04T08:03:09.228Z,2.10
2018-07-04T08:05:55.712Z,2.53
2018-07-04T08:08:43.470Z,2.37
2018-07-04T08:11:30.056Z,2.33
2018-07-04T08:14:16.285Z,2.93
2018-07-04T08:17:02.824Z,1.70
2018-07-04T08:19:49.270Z,2.40
2018-07-04T08:22:41.264Z,1.70
2018-07-04T08:25:28.084Z,2.40
2018-07-04T08:28:14.322Z,1.63
2018-07-04T08:31:02.597Z,2.83
2018-07-04T08:33:48.956Z,1.80
2018-07-04T08:36:35.937Z,2.00
2018-07-04T08:39:22.232Z,2.50
2018-07-04T08:42:08.646Z,2.10
2018-07-04T08:44:54.937Z,1.80
2018-07-04T08:47:41.177Z,1.97
2018-07-04T08:50:31.748Z,2.00
2018-07-04T08:53:18.140Z,2.33
2018-07-04T08:56:05.099Z,2.13
2018-07-04T08:58:51.534Z,1.90
2018-07-04T09:01:37.893Z,1.50
2018-07-04T09:04:24.249Z,1.60
2018-07-04T09:07:10.635Z,2.20
2018-07-04T09:09:57.106Z,1.80
2018-07-04T09:12:44.045Z,1.83
2018-07-04T09:15:30.885Z,1.80
2018-07-04T09:18:17.388Z,1.70
2018-07-04T09:21:05.416Z,1.43
2018-07-04T09:23:55.044Z,1.80
2018-07-04T09:26:41.769Z,1.63
2018-07-04T09:29:28.435Z,1.63
2018-07-04T09:32:15.217Z,1.73
2018-07-04T09:35:02.804Z,1.93
2018-07-04T09:37:49.451Z,1.97
2018-07-04T09:40:35.918Z,2.17
2018-07-04T09:43:22.312Z,1.70
2018-07-04T09:46:08.930Z,1.73
2018-07-04T09:48:58.853Z,1.87
2018-07-04T09:51:45.318Z,1.70
2018-07-04T09:54:31.485Z,1.60
2018-07-04T09:57:17.816Z,1.87
2018-07-04T10:00:04.282Z,2.00
2018-07-04T10:02:50.949Z,1.77
2018-07-04T10:05:37.260Z,1.90
2018-07-04T10:08:23.690Z,1.80
2018-07-04T10:11:10.346Z,1.83
2018-07-04T10:13:56.628Z,2.27
2018-07-04T10:16:42.892Z,2.00
2018-07-04T10:19:29.650Z,1.57
2018-07-04T10:22:16.296Z,2.20
2018-07-04T10:25:02.944Z,1.57
2018-07-04T10:27:49.783Z,2.13
2018-07-04T10:30:36.229Z,2.90
2018-07-04T10:33:22.766Z,4.23
2018-07-04T10:36:09.531Z,2.03
2018-07-04T10:38:56.538Z,2.30
2018-07-04T10:41:43.212Z,2.37
2018-07-04T10:44:29.538Z,2.70
2018-07-04T10:47:16.961Z,5.20
2018-07-04T10:50:03.451Z,1.80
2018-07-04T10:52:49.828Z,3.17
2018-07-04T10:55:36.758Z,2.10
2018-07-04T10:58:23.211Z,2.33
2018-07-04T11:01:10.564Z,3.20
2018-07-04T11:03:57.086Z,3.23
2018-07-04T11:06:43.756Z,1.80
2018-07-04T11:09:30.182Z,1.50
2018-07-04T11:12:21.560Z,3.30
2018-07-04T11:15:08.020Z,2.03
2018-07-04T11:17:54.411Z,1.70
2018-07-04T11:20:40.830Z,1.80
2018-07-04T11:23:27.177Z,1.60
2018-07-04T11:29:12.909Z,1.83
2018-07-04T11:31:59.317Z,1.80
2018-07-04T11:34:45.591Z,1.97
2018-07-04T11:37:31.953Z,2.40
2018-07-04T11:40:18.594Z,2.90
2018-07-04T11:43:05.350Z,2.10
2018-07-04T11:45:52.019Z,2.30
2018-07-04T11:48:20.051Z,2.50
2018-07-04T11:50:48.881Z,2.90
2018-07-04T11:53:16.888Z,2.60
2018-07-04T11:55:44.823Z,2.77
2018-07-04T11:58:13.001Z,2.70
2018-07-04T12:00:41.906Z,4.20
2018-07-04T12:03:17.033Z,5.93
2018-07-04T12:05:58.957Z,6.53
2018-07-04T12:08:33.247Z,4.40
2018-07-04T12:11:01.252Z,4.23
2018-07-04T12:13:32.244Z,3.93
2018-07-04T12:16:00.156Z,3.90
2018-07-04T12:18:28.054Z,4.23
2018-07-04T12:20:55.958Z,4.60
2018-07-04T12:23:23.897Z,5.63
2018-07-04T12:25:52.311Z,4.57
2018-07-04T12:28:20.252Z,4.80
2018-07-04T12:30:48.209Z,5.30
2018-07-04T12:33:16.212Z,7.27
2018-07-04T12:35:44.188Z,5.90
2018-07-04T12:38:12.062Z,6.73
2018-07-04T12:40:39.935Z,6.37
2018-07-04T12:43:07.939Z,11.40
2018-07-04T12:45:39.515Z,4.70
2018-07-04T12:48:04.081Z,4.93
2018-07-04T12:50:33.492Z,2.20
2018-07-04T12:53:01.814Z,5.37
2018-07-04T12:55:43.669Z,3.17
2018-07-04T12:58:29.938Z,6.37
2018-07-04T13:01:16.868Z,1.77
2018-07-04T13:04:03.132Z,1.80
2018-07-04T13:06:49.578Z,2.10
2018-07-04T13:09:35.808Z,1.70
2018-07-04T13:12:22.372Z,1.90
2018-07-04T13:15:08.788Z,1.83
2018-07-04T13:17:55.237Z,1.60
2018-07-04T13:20:42.073Z,1.47
2018-07-04T13:23:28.569Z,1.60
2018-07-04T13:26:14.997Z,2.20
2018-07-04T13:29:01.202Z,1.60
2018-07-04T13:31:47.793Z,1.50
2018-07-04T13:34:34.349Z,1.50
2018-07-04T13:37:26.031Z,1.63
2018-07-04T13:40:12.386Z,1.40
2018-07-04T13:42:59.045Z,1.50
2018-07-04T13:45:45.402Z,1.40
2018-07-04T13:48:32.715Z,2.00
2018-07-04T13:51:19.429Z,1.50
2018-07-04T13:54:05.835Z,1.40
2018-07-04T13:56:52.130Z,1.57
2018-07-04T13:59:38.470Z,1.50
2018-07-04T14:02:25.026Z,1.70
2018-07-04T14:05:11.608Z,1.40
2018-07-04T14:07:58.113Z,1.40
2018-07-04T14:10:44.685Z,1.40
2018-07-04T14:13:30.786Z,1.50
2018-07-04T14:16:17.405Z,1.50
2018-07-04T14:19:03.977Z,1.40
2018-07-04T14:22:03.639Z,1.40
2018-07-04T14:24:49.782Z,1.80
2018-07-04T14:27:36.063Z,2.37
2018-07-04T14:30:22.449Z,2.53
2018-07-04T14:33:09.654Z,1.60
2018-07-04T14:36:01.867Z,4.13
2018-07-04T14:38:48.616Z,2.40
2018-07-04T14:41:36.929Z,1.57
2018-07-04T14:44:17.749Z,1.73
2018-07-04T14:47:04.142Z,1.40
2018-07-04T14:49:50.911Z,1.70
2018-07-04T14:52:37.699Z,1.80
2018-07-04T14:55:24.269Z,1.50
2018-07-04T14:58:10.956Z,1.57
2018-07-04T15:00:57.381Z,1.43
2018-07-04T15:03:44.056Z,1.80
2018-07-04T15:06:30.564Z,1.50
2018-07-04T15:09:16.968Z,1.50
2018-07-04T15:12:03.671Z,1.60
2018-07-04T15:14:50.648Z,1.80
2018-07-04T15:17:37.264Z,1.60
2018-07-04T15:20:24.114Z,1.60
2018-07-04T15:23:10.456Z,1.50
2018-07-04T15:25:57.321Z,1.60
2018-07-04T15:28:43.884Z,1.60
2018-07-04T15:31:30.401Z,1.57
2018-07-04T15:34:17.089Z,2.07
2018-07-04T15:37:03.581Z,1.60
2018-07-04T15:39:50.022Z,1.57
2018-07-04T15:42:38.347Z,1.67
2018-07-04T15:45:26.928Z,1.60
2018-07-04T15:48:13.234Z,1.60
2018-07-04T15:50:59.595Z,2.07
2018-07-04T15:53:46.249Z,1.70
2018-07-04T15:56:32.986Z,1.70
2018-07-04T15:59:14.713Z,1.50
2018-07-04T16:02:01.108Z,1.80
2018-07-04T16:04:49.570Z,1.87
2018-07-04T16:07:44.094Z,1.60
2018-07-04T16:10:33.978Z,1.60
2018-07-04T16:16:33.642Z,1.40
2018-07-04T16:19:20.144Z,1.57
2018-07-04T16:25:12.522Z,1.50
2018-07-04T16:27:58.772Z,1.50
2018-07-04T16:30:45.380Z,1.30
2018-07-04T16:33:35.932Z,1.60
2018-07-04T16:36:22.565Z,2.00
2018-07-04T16:39:09.195Z,1.80
2018-07-04T16:41:55.710Z,1.63
2018-07-04T16:44:42.428Z,2.07
2018-07-04T16:47:28.921Z,1.50
2018-07-04T16:50:15.710Z,1.50
2018-07-04T16:53:04.812Z,1.80
2018-07-04T16:55:51.156Z,1.90
2018-07-04T16:58:37.771Z,2.10
2018-07-04T17:01:24.542Z,1.70
2018-07-04T17:04:16.290Z,1.80
2018-07-04T17:07:03.117Z,1.50
2018-07-04T17:09:50.189Z,2.00
2018-07-04T17:12:47.466Z,2.40
2018-07-04T17:15:33.630Z,1.60
2018-07-04T17:18:19.982Z,1.90
2018-07-04T17:21:06.693Z,2.07
2018-07-04T17:23:53.065Z,2.03
2018-07-04T17:26:40.149Z,2.20
2018-07-04T17:29:26.615Z,1.90
2018-07-04T17:32:13.514Z,1.77
2018-07-04T17:35:00.250Z,1.80
2018-07-04T17:37:47.790Z,2.03
2018-07-04T17:40:39.021Z,2.00
2018-07-04T17:43:25.851Z,5.33
2018-07-04T17:46:13.335Z,2.00
2018-07-04T17:49:00.348Z,2.20
2018-07-04T17:51:48.569Z,2.20
2018-07-04T17:54:36.323Z,2.20
2018-07-04T17:57:27.241Z,2.03
2018-07-04T18:00:13.803Z,1.70
2018-07-04T18:03:03.524Z,2.67
2018-07-04T18:05:50.473Z,1.93
2018-07-04T18:08:37.580Z,2.23
2018-07-04T18:11:24.512Z,2.00
2018-07-04T18:14:11.131Z,2.10
2018-07-04T18:16:58.259Z,1.97
2018-07-04T18:19:50.729Z,2.17
2018-07-04T18:22:38.384Z,1.97
2018-07-04T18:25:19.018Z,2.53
2018-07-04T18:28:11.232Z,2.50
2018-07-04T18:31:10.680Z,2.60
2018-07-04T18:33:57.192Z,2.20
2018-07-04T18:36:43.820Z,2.40
2018-07-04T18:39:31.331Z,2.40
2018-07-04T18:42:21.930Z,3.87
2018-07-04T18:45:13.990Z,4.63
2018-07-04T18:48:00.488Z,3.83
2018-07-04T18:50:47.210Z,3.60
2018-07-04T18:53:34.151Z,3.20
2018-07-04T18:56:20.766Z,3.03
2018-07-04T18:59:11.731Z,3.50
2018-07-04T19:01:58.219Z,3.00
2018-07-04T19:04:45.006Z,3.93
2018-07-04T19:07:32.019Z,4.60
2018-07-04T19:10:19.067Z,4.60
2018-07-04T19:13:05.712Z,3.70
2018-07-04T19:15:46.276Z,4.50
2018-07-04T19:18:33.085Z,4.60
2018-07-04T19:21:19.830Z,4.70
2018-07-04T19:24:10.650Z,4.60
2018-07-04T19:26:57.341Z,4.70
2018-07-04T19:35:41.594Z,4.43
2018-07-04T19:38:34.149Z,4.77
2018-07-04T19:41:20.681Z,4.70
2018-07-04T19:44:07.142Z,5.57
2018-07-04T19:46:53.676Z,5.90
2018-07-04T19:49:40.239Z,6.83
2018-07-04T19:52:27.107Z,6.07
2018-07-04T19:55:13.924Z,6.00
2018-07-04T19:58:00.757Z,4.57
2018-07-04T20:00:48.775Z,5.83
2018-07-04T20:03:36.267Z,5.80
2018-07-04T20:06:23.786Z,4.70
2018-07-04T20:09:12.926Z,4.63
2018-07-04T20:12:01.716Z,4.80
2018-07-04T20:14:48.317Z,4.80
2018-07-04T20:17:35.107Z,9.90
2018-07-04T20:20:23.677Z,5.17
2018-07-04T20:23:12.067Z,6.70
2018-07-04T20:26:01.297Z,8.60
2018-07-04T20:28:50.012Z,7.57
2018-07-04T20:31:39.074Z,6.60
2018-07-04T20:34:25.795Z,5.67
2018-07-04T20:37:17.370Z,6.50
2018-07-04T20:40:04.981Z,6.07
2018-07-04T20:42:54.016Z,5.97
2018-07-04T20:45:40.486Z,5.20
2018-07-04T20:48:28.177Z,5.30
2018-07-04T20:51:08.942Z,6.10
2018-07-04T20:53:58.761Z,6.33
2018-07-04T20:56:47.236Z,7.30
2018-07-04T20:59:33.847Z,6.47
2018-07-04T21:02:21.057Z,5.20
2018-07-04T21:05:07.776Z,5.50
2018-07-04T21:07:54.086Z,4.97
2018-07-04T21:10:40.614Z,5.50
2018-07-04T21:13:27.036Z,5.00
2018-07-04T21:16:18.624Z,4.90
2018-07-04T21:19:05.387Z,5.50
2018-07-04T21:21:52.248Z,4.60
2018-07-04T21:24:40.057Z,4.60
2018-07-04T21:27:26.604Z,5.77
2018-07-04T21:30:13.022Z,5.10
2018-07-04T21:32:59.701Z,4.53
2018-07-04T21:35:46.487Z,4.93
2018-07-04T21:38:32.997Z,4.93
2018-07-04T21:41:19.820Z,4.70
2018-07-04T21:44:07.653Z,4.60
2018-07-04T21:46:55.277Z,5.30
2018-07-04T21:49:41.947Z,4.23
2018-07-04T21:52:29.002Z,3.77
2018-07-04T21:55:17.466Z,4.07
2018-07-04T21:58:04.441Z,4.30
2018-07-04T22:00:51.448Z,4.67
2018-07-04T22:03:38.336Z,4.43
2018-07-04T22:06:24.703Z,3.50
2018-07-04T22:09:11.239Z,4.30
2018-07-04T22:11:57.935Z,4.40
2018-07-04T22:14:44.277Z,3.40
2018-07-04T22:17:30.822Z,4.20
2018-07-04T22:20:18.348Z,5.20
2018-07-04T22:23:04.977Z,4.00
2018-07-04T22:25:53.523Z,4.60
2018-07-04T22:28:39.899Z,4.37
2018-07-04T22:31:30.969Z,5.33
2018-07-04T22:34:17.353Z,4.60
2018-07-04T22:37:05.940Z,4.40
2018-07-04T22:39:52.478Z,4.45
2018-07-04T22:42:38.913Z,4.40
2018-07-04T22:45:25.111Z,4.00
2018-07-04T22:48:11.677Z,3.97
2018-07-04T22:51:04.765Z,4.67
2018-07-04T22:53:50.963Z,3.80
2018-07-04T22:56:43.950Z,4.40
2018-07-04T22:59:30.046Z,3.80
2018-07-04T23:02:16.354Z,4.27
2018-07-04T23:05:02.532Z,4.87
2018-07-04T23:07:49.922Z,4.97
2018-07-04T23:10:36.376Z,4.93
2018-07-04T23:13:22.905Z,5.60
2018-07-04T23:16:09.429Z,5.23
2018-07-04T23:18:55.641Z,5.03
2018-07-04T23:21:41.983Z,5.00
2018-07-04T23:24:28.196Z,5.93
2018-07-04T23:27:14.884Z,4.63
2018-07-04T23:30:01.176Z,5.13
2018-07-04T23:32:49.946Z,4.53
2018-07-04T23:35:36.369Z,4.50
2018-07-04T23:38:22.900Z,5.23
2018-07-04T23:41:09.519Z,4.83
2018-07-04T23:43:55.980Z,5.23
2018-07-04T23:46:43.456Z,4.67
2018-07-04T23:49:30.073Z,5.30
2018-07-04T23:52:16.770Z,4.20
2018-07-04T23:55:03.537Z,4.30
2018-07-04T23:57:50.087Z,4.67
